Terminal Aerodrome Forecast
Issued by NWS

Home | Current Version | Previous Version | Graphics & Text | Print | Product List | Glossary On
Versions: 1 2 3 4 5 6 7 8 9 10 11 12 13 14 15 16 17 18 19 20 21
000
FTUS43 KIWX 180200 AAA
TAFSBN
TAF AMD
KSBN 180253Z 1803/1824 32004KT 6SM BR VCSH SCT008 OVC015
      TEMPO 1804/1807 3SM BR OVC008
     FM180700 VRB03KT 4SM BR SCT005 OVC010
     FM181400 12004KT P6SM SCT010 BKN030
     FM181600 07004KT P6SM BKN035=

USA.gov is the U.S. government's official web portal to all federal, state and local government web resources and services.